Time;durP1;ratioP1;P1;durP2;ratioP2;P2;SDS_P1;SDS_P2;PMS_P1;PMS_P2;Temp;Humidity;BMP_temperature;BMP_pressure;BME280_temperature;BME280_humidity;BME280_pressure;Samples;Min_cycle;Max_cycle;Signal;HPM_P1;HPM_P2
2021/10/10 00:00:34;;;;;;;489.58;444.13;;;15.90;89.30;;;15.26;100.00;100744.72;5029228;28;20237;-63
2021/10/10 00:03:02;;;;;;;408.00;363.60;;;15.90;90.10;;;15.36;100.00;100742.78;5021192;28;20218;-66
2021/10/10 00:05:30;;;;;;;400.30;340.13;;;16.00;90.60;;;15.39;100.00;100740.22;5016554;28;20708;-63
2021/10/10 00:07:58;;;;;;;394.58;349.10;;;16.00;90.30;;;15.40;100.00;100741.03;5011407;28;20231;-63
2021/10/10 00:10:26;;;;;;;396.00;350.52;;;16.00;90.20;;;15.37;100.00;100736.22;5011461;28;20779;-62
2021/10/10 00:12:54;;;;;;;395.45;342.15;;;16.00;90.00;;;15.32;100.00;100737.19;5012315;28;20234;-67
2021/10/10 00:15:23;;;;;;;404.05;335.58;;;15.90;89.50;;;15.26;100.00;100730.28;5011842;28;20219;-65
2021/10/10 00:17:52;;;;;;;392.50;325.25;;;15.80;89.40;;;15.23;100.00;100720.84;5012042;28;20257;-64
2021/10/10 00:20:22;;;;;;;745.67;694.13;;;15.80;89.40;;;15.14;100.00;100730.16;5009992;28;20883;-63
2021/10/10 00:22:50;;;;;;;827.55;773.78;;;15.80;89.10;;;15.09;100.00;100725.69;5010502;28;20424;-65
2021/10/10 00:25:18;;;;;;;482.63;437.52;;;15.80;88.70;;;15.16;100.00;100725.19;5011956;28;20718;-65
2021/10/10 00:27:46;;;;;;;790.40;737.67;;;15.70;88.60;;;15.10;100.00;100740.09;5014613;28;20915;-65
2021/10/10 00:30:16;;;;;;;457.30;412.05;;;15.70;88.60;;;15.20;100.00;100728.88;5014595;28;20235;-64
2021/10/10 00:32:44;;;;;;;413.70;369.52;;;15.80;88.70;;;15.14;100.00;100730.97;5014507;28;20216;-62
2021/10/10 00:35:15;;;;;;;756.95;704.67;;;15.70;88.60;;;15.05;100.00;100723.91;5012664;28;20420;-66
2021/10/10 00:37:43;;;;;;;814.90;761.45;;;15.70;88.80;;;15.04;100.00;100734.03;5014321;28;20503;-64
2021/10/10 00:40:13;;;;;;;840.80;786.22;;;15.80;88.70;;;15.02;100.00;100735.44;5013750;28;20412;-64
2021/10/10 00:42:42;;;;;;;460.63;414.95;;;15.70;89.20;;;15.04;100.00;100723.13;5015768;28;20212;-65
2021/10/10 00:45:11;;;;;;;791.60;738.78;;;15.60;89.50;;;14.92;100.00;100722.19;5014193;28;20428;-63
2021/10/10 00:47:39;;;;;;;838.35;784.08;;;15.60;90.00;;;14.92;100.00;100722.97;5014074;28;20507;-64
2021/10/10 00:50:08;;;;;;;486.67;440.55;;;15.70;90.00;;;15.05;100.00;100716.53;5014747;28;20227;-65
2021/10/10 00:52:42;;;;;;;787.25;734.35;;;15.70;90.00;;;14.91;100.00;100705.03;5014257;28;20898;-66
2021/10/10 00:55:11;;;;;;;826.85;772.88;;;15.60;89.40;;;14.83;100.00;100705.03;5014141;28;20452;-66
2021/10/10 00:57:46;;;;;;;834.15;779.67;;;15.60;89.60;;;14.81;100.00;100702.63;5014147;28;20424;-65
2021/10/10 01:00:15;;;;;;;834.78;780.22;;;15.50;89.80;;;14.82;100.00;100701.50;5013231;28;20419;-64
2021/10/10 01:02:44;;;;;;;433.77;388.80;;;15.60;90.00;;;14.91;100.00;100698.78;5015621;28;20223;-65
2021/10/10 01:05:14;;;;;;;395.90;331.33;;;15.50;90.10;;;14.95;100.00;100707.91;5015248;28;20655;-64
2021/10/10 01:07:44;;;;;;;731.45;679.33;;;15.60;90.50;;;14.94;100.00;100704.41;5013845;28;20502;-64
2021/10/10 01:10:13;;;;;;;429.40;384.88;;;15.60;90.80;;;14.99;100.00;100698.78;5014439;28;20227;-65
2021/10/10 01:12:42;;;;;;;754.28;702.63;;;15.70;90.70;;;14.92;100.00;100698.47;5013563;28;20830;-67
2021/10/10 01:15:12;;;;;;;800.03;746.80;;;15.70;90.70;;;14.97;100.00;100703.75;5013738;28;20409;-65
2021/10/10 01:17:41;;;;;;;807.20;753.65;;;15.70;90.60;;;15.00;100.00;100700.38;5013882;28;20443;-64
2021/10/10 01:20:11;;;;;;;455.33;410.85;;;15.70;90.40;;;15.15;100.00;100693.63;5013749;28;20286;-65
2021/10/10 01:22:41;;;;;;;403.38;359.23;;;15.80;90.20;;;15.15;100.00;100693.63;5014959;28;20223;-66
2021/10/10 01:25:10;;;;;;;389.77;330.73;;;15.70;90.20;;;15.10;100.00;100689.16;5014515;28;20219;-64
2021/10/10 01:27:39;;;;;;;725.40;674.33;;;15.70;90.00;;;15.01;100.00;100695.75;5013478;28;20432;-65
2021/10/10 01:30:08;;;;;;;416.90;372.02;;;15.70;90.20;;;15.06;100.00;100690.94;5014324;28;20235;-63
2021/10/10 01:32:36;;;;;;;717.37;666.33;;;15.60;90.30;;;15.03;100.00;100691.56;5012576;28;21057;-66
2021/10/10 01:35:05;;;;;;;422.08;377.88;;;15.80;90.60;;;15.13;100.00;100685.81;5014859;28;20262;-65
2021/10/10 01:37:33;;;;;;;386.80;332.85;;;15.70;90.60;;;15.15;100.00;100693.63;5013760;28;20667;-66
2021/10/10 01:40:03;;;;;;;689.30;639.58;;;15.80;90.60;;;15.09;100.00;100693.00;5012602;28;20436;-65
2021/10/10 01:42:31;;;;;;;783.65;731.45;;;15.80;90.70;;;15.01;100.00;100679.41;5013288;28;20946;-65
2021/10/10 01:44:59;;;;;;;420.88;377.77;;;15.80;90.40;;;14.97;100.00;100675.72;5014589;28;20258;-67
2021/10/10 01:47:27;;;;;;;379.73;322.95;;;15.60;90.00;;;14.82;100.00;100671.56;5014456;28;20247;-63
2021/10/10 01:49:55;;;;;;;380.13;306.63;;;15.50;90.10;;;14.76;100.00;100678.28;5013532;28;20236;-64
2021/10/10 01:52:23;;;;;;;697.90;647.53;;;15.40;90.30;;;14.65;100.00;100677.03;5012892;28;20420;-65
2021/10/10 01:54:52;;;;;;;410.15;366.45;;;15.40;90.30;;;14.74;100.00;100675.88;5014505;28;20250;-67
2021/10/10 01:57:21;;;;;;;748.03;696.33;;;15.40;90.50;;;14.69;100.00;100667.09;5012929;28;20409;-66
2021/10/10 01:59:49;;;;;;;421.63;377.52;;;15.40;90.50;;;14.76;100.00;100668.22;5013619;28;20230;-66
2021/10/10 02:02:18;;;;;;;737.47;685.38;;;15.40;90.30;;;14.75;100.00;100668.53;5012779;28;20412;-64
2021/10/10 02:04:46;;;;;;;413.65;369.10;;;15.40;90.60;;;14.93;100.00;100678.28;5014045;28;20247;-67
2021/10/10 02:07:14;;;;;;;745.13;693.13;;;15.50;90.60;;;14.90;100.00;100672.66;5012711;28;20428;-64
2021/10/10 02:09:43;;;;;;;410.10;366.35;;;15.60;90.30;;;14.98;100.00;100669.97;5013380;28;20239;-64
2021/10/10 02:12:12;;;;;;;391.90;326.80;;;15.60;90.10;;;14.97;100.00;100671.06;5014039;28;20281;-66
2021/10/10 02:14:41;;;;;;;379.38;303.85;;;15.60;90.20;;;14.88;100.00;100658.59;5014218;28;20214;-68
2021/10/10 02:17:09;;;;;;;375.63;297.60;;;15.50;90.10;;;14.67;100.00;100656.53;5013954;28;20215;-67
2021/10/10 02:19:37;;;;;;;383.67;297.35;;;15.30;90.00;;;14.57;100.00;100658.75;5012896;28;20219;-64
2021/10/10 02:22:06;;;;;;;403.95;292.48;;;15.20;90.20;;;14.64;100.00;100667.25;5013972;28;20261;-66
2021/10/10 02:24:34;;;;;;;389.30;294.98;;;15.20;90.90;;;14.77;100.00;100664.34;5013847;28;20216;-66
2021/10/10 02:27:02;;;;;;;382.65;292.90;;;15.40;91.10;;;14.83;100.00;100661.50;5013932;28;20698;-66
2021/10/10 02:29:31;;;;;;;387.13;282.52;;;15.50;90.90;;;14.77;100.00;100661.63;5013027;28;20242;-65
2021/10/10 02:32:01;;;;;;;709.50;658.42;;;15.40;90.60;;;14.70;100.00;100660.53;5012133;28;20416;-66
2021/10/10 02:34:29;;;;;;;412.30;368.25;;;15.40;90.60;;;14.82;100.00;100657.16;5013808;28;20220;-64
2021/10/10 02:36:57;;;;;;;742.60;691.33;;;15.40;90.70;;;14.76;100.00;100653.81;5012184;28;20424;-67
2021/10/10 02:39:25;;;;;;;790.60;737.50;;;15.40;90.40;;;14.79;100.00;100650.44;5011642;28;20467;-64
2021/10/10 02:41:54;;;;;;;820.60;766.80;;;15.50;90.40;;;14.83;100.00;100654.13;5012052;28;20409;-66
2021/10/10 02:44:22;;;;;;;466.88;421.23;;;15.50;90.20;;;14.96;100.00;100642.25;5013289;28;20215;-64
2021/10/10 02:46:50;;;;;;;409.23;364.98;;;15.60;90.30;;;14.96;100.00;100642.25;5013488;28;20215;-66
2021/10/10 02:49:19;;;;;;;757.83;706.45;;;15.60;90.10;;;14.88;100.00;100644.97;5010487;28;20479;-63
2021/10/10 02:51:48;;;;;;;816.60;762.90;;;15.60;90.10;;;14.91;100.00;100641.63;5012053;28;20405;-65
2021/10/10 02:54:16;;;;;;;460.70;416.00;;;15.60;90.20;;;15.10;100.00;100637.41;5013322;28;20215;-66
2021/10/10 02:56:44;;;;;;;765.88;713.92;;;15.70;90.20;;;14.99;100.00;100643.50;5011567;28;20419;-65
2021/10/10 02:59:12;;;;;;;804.75;751.50;;;15.60;90.20;;;14.93;100.00;100640.16;5011000;28;20443;-64
2021/10/10 03:01:40;;;;;;;827.67;774.45;;;15.70;90.10;;;14.88;100.00;100640.34;5011804;28;20420;-65
2021/10/10 03:04:08;;;;;;;483.58;437.58;;;15.60;89.90;;;15.02;100.00;100638.22;5013041;28;20223;-63
2021/10/10 03:06:38;;;;;;;419.70;374.33;;;15.60;90.60;;;15.18;100.00;100638.50;5013255;28;20215;-66
2021/10/10 03:09:06;;;;;;;419.25;356.80;;;15.80;91.00;;;15.31;100.00;100646.50;5012195;28;20238;-65
2021/10/10 03:11:34;;;;;;;760.67;707.40;;;15.90;91.00;;;15.39;100.00;100646.78;5011344;28;20420;-65
2021/10/10 03:14:02;;;;;;;837.72;783.75;;;16.10;91.10;;;15.32;100.00;100639.09;5011531;28;20427;-65
2021/10/10 03:16:31;;;;;;;499.67;453.20;;;16.10;90.50;;;15.44;100.00;100635.72;5013021;28;20211;-64
2021/10/10 03:18:59;;;;;;;789.57;736.43;;;16.10;90.60;;;15.31;100.00;100638.31;5011038;28;20412;-63
2021/10/10 03:21:27;;;;;;;828.15;774.53;;;16.00;90.40;;;15.21;100.00;100624.25;5011336;28;20420;-64
2021/10/10 03:23:57;;;;;;;475.95;430.73;;;16.00;90.10;;;15.23;100.00;100625.50;5012603;28;20610;-65
2021/10/10 03:26:25;;;;;;;783.65;731.22;;;15.90;90.10;;;15.10;100.00;100623.00;5011360;28;20421;-64
2021/10/10 03:28:53;;;;;;;446.58;402.27;;;15.80;90.10;;;15.14;100.00;100624.72;5012220;28;20227;-63
2021/10/10 03:31:22;;;;;;;770.13;718.15;;;15.80;90.00;;;14.94;100.00;100622.72;5011311;28;20823;-64
2021/10/10 03:33:50;;;;;;;807.85;755.25;;;15.70;90.30;;;14.88;100.00;100624.00;5011220;28;20460;-63
2021/10/10 03:36:18;;;;;;;818.85;765.47;;;15.60;89.60;;;14.82;100.00;100622.56;5010990;28;20945;-64
2021/10/10 03:38:46;;;;;;;823.23;769.77;;;15.60;89.70;;;14.82;100.00;100625.28;5010354;28;20891;-62
2021/10/10 03:41:16;;;;;;;458.08;413.75;;;15.60;89.70;;;14.88;100.00;100618.56;5012286;28;20482;-64
2021/10/10 03:43:44;;;;;;;767.97;716.42;;;15.50;89.10;;;14.66;100.00;100613.28;5011195;28;20413;-65
2021/10/10 03:46:13;;;;;;;803.22;750.17;;;15.40;89.00;;;14.58;100.00;100605.94;5010944;28;20425;-64
2021/10/10 03:48:41;;;;;;;794.10;741.77;;;15.30;88.90;;;14.49;100.00;100605.97;5010190;28;20468;-65
2021/10/10 03:51:09;;;;;;;799.85;747.08;;;15.20;88.70;;;14.43;100.00;100601.81;5010704;28;20478;-66
2021/10/10 03:53:57;;;;;;;433.13;389.38;;;15.10;89.40;;;14.51;100.00;100602.91;5012257;28;20215;-64
2021/10/10 03:56:27;;;;;;;760.60;709.07;;;15.10;89.90;;;14.39;100.00;100605.47;5010344;28;20421;-63
2021/10/10 03:58:55;;;;;;;791.58;739.30;;;15.10;89.70;;;14.31;100.00;100608.97;5010070;28;20416;-64
2021/10/10 04:01:23;;;;;;;807.63;754.93;;;15.00;89.00;;;14.24;100.00;100602.06;5010349;28;20953;-65
2021/10/10 04:03:51;;;;;;;445.95;400.90;;;15.00;88.50;;;14.28;100.00;100602.25;5012111;28;20277;-67
2021/10/10 04:06:19;;;;;;;738.58;687.63;;;14.90;88.30;;;14.13;100.00;100608.94;5010910;28;20416;-62
2021/10/10 04:08:47;;;;;;;777.78;725.85;;;14.80;88.80;;;14.10;100.00;100606.06;5010359;28;20432;-64
2021/10/10 04:11:15;;;;;;;798.47;745.30;;;14.80;89.10;;;14.17;100.00;100609.09;5010889;28;20887;-67
2021/10/10 04:13:45;;;;;;;429.45;384.88;;;14.90;89.80;;;14.40;100.00;100607.88;5011960;28;20216;-64
2021/10/10 04:16:13;;;;;;;390.70;334.83;;;15.00;90.10;;;14.49;100.00;100613.31;5012101;28;20229;-66
2021/10/10 04:18:41;;;;;;;720.45;669.60;;;15.10;90.00;;;14.40;100.00;100610.59;5010259;28;20420;-68
2021/10/10 04:21:10;;;;;;;793.38;740.75;;;15.10;89.80;;;14.38;100.00;100612.03;5010875;28;20427;-63
2021/10/10 04:23:38;;;;;;;435.63;391.80;;;15.10;89.90;;;14.41;100.00;100616.84;5012072;28;20211;-65
2021/10/10 04:26:06;;;;;;;749.72;698.15;;;15.00;89.40;;;14.28;100.00;100617.75;5010588;28;20412;-64
2021/10/10 04:28:34;;;;;;;424.38;380.40;;;15.00;90.00;;;14.34;100.00;100614.59;5011019;28;20261;-65
2021/10/10 04:31:04;;;;;;;394.17;330.55;;;15.00;90.00;;;14.46;100.00;100609.31;5011914;28;20595;-65
2021/10/10 04:33:32;;;;;;;719.10;667.80;;;15.10;90.60;;;14.53;100.00;100614.28;5010727;28;20417;-66
2021/10/10 04:36:00;;;;;;;421.67;377.27;;;15.30;90.80;;;14.68;100.00;100611.84;5012101;28;20208;-63
2021/10/10 04:38:28;;;;;;;389.48;327.65;;;15.30;90.50;;;14.84;100.00;100612.16;5011337;28;20207;-64
2021/10/10 04:40:56;;;;;;;715.10;664.67;;;15.50;90.60;;;14.80;100.00;100605.78;5010098;28;20420;-65
2021/10/10 04:43:24;;;;;;;415.90;372.10;;;15.50;90.40;;;14.92;100.00;100607.81;5011832;28;20626;-65
2021/10/10 04:45:53;;;;;;;760.10;708.53;;;15.50;90.40;;;14.78;100.00;100606.06;5010628;28;20417;-66
2021/10/10 04:48:22;;;;;;;424.60;381.55;;;15.50;90.00;;;14.78;100.00;100597.91;5011253;28;20240;-67
2021/10/10 04:50:50;;;;;;;389.88;341.85;;;15.40;89.40;;;14.64;100.00;100596.50;5011482;28;20783;-65
2021/10/10 04:53:18;;;;;;;389.55;324.17;;;15.20;89.40;;;14.58;100.00;100603.22;5011670;28;20266;-63
2021/10/10 04:55:47;;;;;;;716.10;665.38;;;15.20;89.80;;;14.52;100.00;100602.59;5010237;28;20483;-63
2021/10/10 04:58:15;;;;;;;790.35;738.33;;;15.20;90.00;;;14.61;100.00;100603.38;5010048;28;20421;-62
2021/10/10 05:00:43;;;;;;;467.33;421.75;;;15.30;90.30;;;14.83;100.00;100607.03;5011456;28;20236;-62
2021/10/10 05:03:11;;;;;;;398.17;351.42;;;15.40;90.60;;;14.91;100.00;100604.31;5011802;28;20238;-65
2021/10/10 05:05:41;;;;;;;395.27;338.58;;;15.50;90.70;;;14.95;100.00;100605.25;5011549;28;20689;-64
2021/10/10 05:08:10;;;;;;;746.38;694.92;;;15.60;90.80;;;14.96;100.00;100601.41;5009518;28;20436;-66
2021/10/10 05:10:39;;;;;;;451.50;406.60;;;15.70;90.90;;;15.10;100.00;100612.09;5011430;28;20259;-63
2021/10/10 05:13:07;;;;;;;779.78;727.80;;;15.80;90.70;;;15.08;100.00;100606.16;5012893;28;20421;-65
2021/10/10 05:15:35;;;;;;;826.15;773.25;;;15.80;90.50;;;15.08;100.00;100603.44;5013925;28;20933;-65
2021/10/10 05:18:04;;;;;;;478.92;434.15;;;15.80;90.10;;;15.10;100.00;100602.03;5014627;28;20218;-62
2021/10/10 05:20:32;;;;;;;780.30;728.38;;;15.70;89.80;;;14.88;100.00;100606.88;5013298;28;20427;-63
2021/10/10 05:23:02;;;;;;;802.57;750.40;;;15.60;89.10;;;14.73;100.00;100600.81;5013581;28;20421;-66
2021/10/10 05:25:30;;;;;;;440.52;396.65;;;15.50;88.60;;;14.78;100.00;100603.34;5015091;28;20840;-64
2021/10/10 05:27:58;;;;;;;753.70;702.30;;;15.40;89.10;;;14.68;100.00;100611.84;5012904;28;20937;-66
2021/10/10 05:30:26;;;;;;;815.03;761.78;;;15.40;89.50;;;14.70;100.00;100611.53;5013380;28;20424;-65
2021/10/10 05:32:55;;;;;;;471.67;426.67;;;15.40;89.70;;;14.86;100.00;100611.84;5014789;28;20278;-63
2021/10/10 05:35:23;;;;;;;765.17;713.28;;;15.50;89.70;;;14.81;100.00;100618.25;5013334;28;20419;-65
2021/10/10 05:37:51;;;;;;;807.83;754.95;;;15.50;90.00;;;14.88;100.00;100618.56;5013369;28;20783;-66
2021/10/10 05:40:21;;;;;;;464.85;420.35;;;15.60;90.20;;;14.93;100.00;100629.28;5014574;28;20238;-67
2021/10/10 05:42:49;;;;;;;398.52;354.08;;;15.60;89.60;;;14.89;100.00;100620.16;5014698;28;20222;-66
2021/10/10 05:45:17;;;;;;;736.67;686.03;;;15.50;89.50;;;14.70;100.00;100617.78;5013064;28;20416;-64
2021/10/10 05:47:46;;;;;;;428.08;384.55;;;15.40;89.00;;;14.69;100.00;100620.81;5014292;28;20699;-65
2021/10/10 05:50:14;;;;;;;751.63;700.40;;;15.30;88.70;;;14.54;100.00;100621.31;5012484;28;20412;-62
2021/10/10 05:52:42;;;;;;;421.85;378.35;;;15.20;88.80;;;14.48;100.00;100622.59;5014444;28;20211;-64
2021/10/10 05:55:13;;;;;;;386.90;330.08;;;15.10;88.80;;;14.33;100.00;100625.78;5014211;28;20593;-62
2021/10/10 05:57:47;;;;;;;381.42;311.10;;;15.00;89.50;;;14.17;100.00;100633.56;5014497;28;20580;-63
2021/10/10 06:00:17;;;;;;;722.97;671.97;;;14.80;89.50;;;14.11;100.00;100637.56;5011615;28;20798;-63
2021/10/10 06:02:45;;;;;;;410.85;367.20;;;14.80;90.10;;;14.21;100.00;100632.63;5014315;28;20589;-62
2021/10/10 06:05:15;;;;;;;394.42;325.38;;;14.90;90.40;;;14.34;100.00;100638.28;5013685;28;20843;-63
2021/10/10 06:07:43;;;;;;;388.70;304.70;;;14.90;90.50;;;14.40;100.00;100643.25;5014329;28;20616;-63
2021/10/10 06:10:12;;;;;;;712.20;661.22;;;15.00;90.60;;;14.46;100.00;100638.44;5011997;28;20475;-64
2021/10/10 06:12:42;;;;;;;785.57;732.77;;;15.20;90.90;;;14.51;100.00;100639.06;5012622;28;20424;-61
2021/10/10 06:15:11;;;;;;;802.38;749.45;;;15.30;90.70;;;14.59;100.00;100642.94;5012647;28;20772;-64
2021/10/10 06:17:39;;;;;;;452.02;406.98;;;15.30;90.70;;;14.76;100.00;100645.63;5014119;28;20222;-65
2021/10/10 06:20:09;;;;;;;774.25;721.95;;;15.40;90.80;;;14.75;100.00;100650.28;5011906;28;20420;-66
2021/10/10 06:22:38;;;;;;;810.40;757.25;;;15.50;90.70;;;14.80;100.00;100645.78;5012650;28;20401;-64
2021/10/10 06:25:08;;;;;;;821.03;767.87;;;15.50;90.60;;;14.81;100.00;100650.91;5012063;28;20420;-64
2021/10/10 06:27:36;;;;;;;831.42;777.90;;;15.60;90.40;;;14.82;100.00;100651.72;5012439;28;20421;-66
2021/10/10 06:30:07;;;;;;;476.63;431.70;;;15.60;90.10;;;14.86;100.00;100642.59;5012674;28;20654;-66
2021/10/10 06:32:35;;;;;;;787.47;734.92;;;15.50;89.60;;;14.75;100.00;100647.56;5012447;28;20417;-62
2021/10/10 06:35:03;;;;;;;459.10;414.88;;;15.40;89.90;;;14.77;100.00;100650.75;5013653;28;20215;-63
2021/10/10 06:37:32;;;;;;;763.37;711.97;;;15.40;89.40;;;14.61;100.00;100646.13;5011646;28;20436;-66
2021/10/10 06:40:00;;;;;;;795.65;743.42;;;15.30;89.20;;;14.56;100.00;100643.56;5011483;28;20424;-65
2021/10/10 06:42:28;;;;;;;815.70;763.20;;;15.30;89.30;;;14.52;100.00;100643.41;5012132;28;20424;-65
2021/10/10 06:44:56;;;;;;;813.35;760.85;;;15.20;89.10;;;14.47;100.00;100648.22;5012181;28;20772;-65
2021/10/10 06:47:26;;;;;;;816.08;762.78;;;15.20;89.60;;;14.41;100.00;100646.78;5012145;28;20416;-65
2021/10/10 06:49:54;;;;;;;821.03;768.07;;;15.20;89.30;;;14.45;100.00;100650.44;5011271;28;20897;-67
2021/10/10 06:52:22;;;;;;;833.20;780.05;;;15.20;89.50;;;14.47;100.00;100656.38;5011885;28;20474;-63
2021/10/10 06:54:50;;;;;;;467.65;423.17;;;15.20;89.30;;;14.64;100.00;100654.44;5013425;28;20215;-63
2021/10/10 06:57:19;;;;;;;774.65;722.72;;;15.20;89.40;;;14.67;100.00;100653.81;5012020;28;20977;-64
2021/10/10 06:59:47;;;;;;;822.42;769.22;;;15.30;89.70;;;14.82;100.00;100659.88;5011082;28;20416;-66
2021/10/10 07:02:15;;;;;;;836.10;782.80;;;15.50;89.80;;;14.93;100.00;100661.13;5010168;28;20420;-65
2021/10/10 07:04:44;;;;;;;836.03;782.63;;;15.60;90.00;;;15.10;100.00;100661.94;5011382;28;20457;-66
2021/10/10 07:07:13;;;;;;;504.90;459.77;;;15.80;90.10;;;15.46;100.00;100661.50;5013230;28;20222;-63
2021/10/10 07:09:41;;;;;;;820.97;768.10;;;16.10;89.90;;;15.79;100.00;100662.53;5010892;28;20436;-63
2021/10/10 07:12:09;;;;;;;527.53;482.25;;;16.60;89.30;;;16.30;100.00;100658.69;5013186;28;20226;-63
2021/10/10 07:14:37;;;;;;;472.77;428.55;;;17.20;87.80;;;16.68;100.00;100646.88;5012962;28;20218;-64
2021/10/10 07:17:05;;;;;;;853.35;799.65;;;17.70;86.80;;;16.96;100.00;100647.09;5011445;28;20417;-64
2021/10/10 07:19:40;;;;;;;581.28;534.97;;;18.00;86.00;;;17.19;100.00;100649.13;5011758;28;20578;-62
2021/10/10 07:22:27;;;;;;;521.22;476.13;;;18.20;84.90;;;17.29;100.00;100645.16;5012980;28;20234;-65
2021/10/10 07:25:00;;;;;;;873.47;819.53;;;18.10;86.00;;;17.33;100.00;100652.31;5011497;28;20424;-63
2021/10/10 07:27:29;;;;;;;581.05;535.65;;;18.10;85.40;;;17.40;100.00;100649.03;5012616;28;20254;-65
2021/10/10 07:29:57;;;;;;;526.35;481.55;;;18.00;85.20;;;17.46;100.00;100647.69;5011754;28;20239;-64
2021/10/10 07:32:25;;;;;;;870.63;817.28;;;18.00;85.50;;;17.54;100.00;100659.66;5011492;28;20452;-64
2021/10/10 07:34:54;;;;;;;927.83;872.67;;;18.20;85.50;;;17.71;100.00;100654.00;5010867;28;20409;-64
2021/10/10 07:37:23;;;;;;;948.70;892.63;;;18.30;85.60;;;17.84;100.00;100652.88;5011357;28;20423;-66
2021/10/10 07:39:52;;;;;;;641.00;594.28;;;18.50;85.30;;;18.17;100.00;100650.00;5011639;28;20234;-67
2021/10/10 07:42:21;;;;;;;927.10;872.03;;;18.60;85.90;;;18.35;100.00;100657.59;5011084;28;20482;-64
2021/10/10 07:44:51;;;;;;;961.75;905.55;;;18.90;86.00;;;18.54;100.00;100649.59;5011070;28;20443;-65
2021/10/10 07:47:35;;;;;;;683.53;635.92;;;19.10;85.30;;;18.84;100.00;100652.00;5012534;28;20211;-64
2021/10/10 07:50:03;;;;;;;620.90;574.58;;;19.40;84.80;;;19.01;100.00;100651.69;5011535;28;20239;-63
2021/10/10 07:52:33;;;;;;;946.35;890.45;;;19.60;85.30;;;19.28;100.00;100661.81;5010879;28;20786;-63
2021/10/10 07:55:01;;;;;;;706.55;658.15;;;20.00;85.70;;;19.70;100.00;100653.13;5012159;28;20212;-67
2021/10/10 07:57:29;;;;;;;987.97;930.60;;;20.30;84.50;;;19.94;100.00;100653.69;5011184;28;20443;-64
2021/10/10 07:59:57;;;;;;;747.55;698.05;;;20.50;84.60;;;20.21;100.00;100649.25;5011548;28;20719;-64
2021/10/10 08:02:27;;;;;;;707.72;658.97;;;20.70;83.80;;;20.43;100.00;100662.31;5012336;28;20218;-65
2021/10/10 08:04:55;;;;;;;690.47;642.58;;;20.90;83.10;;;20.65;100.00;100658.84;5012032;28;20222;-65
2021/10/10 08:07:23;;;;;;;992.92;935.72;;;21.20;82.10;;;20.57;100.00;100657.13;5010699;28;20421;-67
2021/10/10 08:09:53;;;;;;;766.67;717.22;;;21.30;81.40;;;20.61;100.00;100663.47;5011475;28;20231;-63
2021/10/10 08:12:21;;;;;;;1004.13;946.77;;;21.30;80.80;;;20.57;100.00;100670.06;5010834;28;20443;-65
2021/10/10 08:14:49;;;;;;;773.65;724.25;;;21.30;80.70;;;20.71;100.00;100670.34;5012161;28;20211;-65
2021/10/10 08:17:17;;;;;;;1007.35;949.88;;;21.40;80.00;;;20.68;100.00;100671.06;5010690;28;20784;-67
2021/10/10 08:19:45;;;;;;;1044.70;985.45;;;21.50;79.90;;;20.70;100.00;100672.28;5009738;28;20466;-63
2021/10/10 08:22:14;;;;;;;787.00;737.28;;;21.50;79.50;;;20.93;100.00;100672.38;5012090;28;20219;-66
2021/10/10 08:24:42;;;;;;;751.00;701.83;;;21.60;80.00;;;21.08;100.00;100673.44;5012291;28;20582;-66
2021/10/10 08:27:12;;;;;;;733.47;684.78;;;21.70;80.60;;;21.21;100.00;100677.66;5011941;28;20211;-65
2021/10/10 08:29:40;;;;;;;716.28;668.28;;;21.80;80.50;;;21.39;100.00;100678.00;5011114;28;20238;-67
2021/10/10 08:32:08;;;;;;;721.60;673.30;;;22.00;80.60;;;21.54;100.00;100664.13;5011723;28;20211;-67
2021/10/10 08:34:37;;;;;;;1012.15;954.35;;;22.10;80.20;;;21.43;100.00;100671.38;5010534;28;20876;-64
2021/10/10 08:37:05;;;;;;;807.75;757.05;;;22.10;79.30;;;21.56;100.00;100670.03;5012137;28;20674;-64
2021/10/10 08:39:33;;;;;;;763.17;713.92;;;22.20;77.80;;;21.60;100.00;100675.59;5011181;28;20219;-66
2021/10/10 08:42:03;;;;;;;739.80;691.10;;;22.20;78.00;;;21.66;100.00;100674.94;5011864;28;20575;-64
2021/10/10 08:44:37;;;;;;;743.92;695.22;;;22.20;77.70;;;21.68;100.00;100680.84;5011824;28;20207;-63
2021/10/10 08:47:14;;;;;;;1025.38;967.17;;;22.20;77.00;;;21.63;100.00;100681.19;5011786;28;20416;-64
2021/10/10 08:49:42;;;;;;;822.58;771.80;;;22.30;76.80;;;21.86;100.00;100685.84;5015045;28;20242;-64
2021/10/10 08:52:12;;;;;;;1042.77;983.67;;;22.40;77.20;;;21.89;100.00;100685.16;5014077;28;20420;-66
2021/10/10 08:54:40;;;;;;;837.30;785.67;;;22.60;76.40;;;22.14;100.00;100689.09;5015525;28;20265;-67
2021/10/10 08:57:09;;;;;;;808.45;757.75;;;22.70;75.10;;;22.27;100.00;100690.47;5015379;28;20219;-64
2021/10/10 08:59:42;;;;;;;795.50;745.53;;;22.80;75.00;;;22.36;100.00;100693.75;5014695;28;20203;-65
2021/10/10 09:02:19;;;;;;;776.17;726.00;;;22.90;75.50;;;22.46;100.00;100693.13;5015469;28;20630;-67
2021/10/10 09:04:47;;;;;;;782.70;733.13;;;23.00;75.20;;;22.56;100.00;100686.13;5015400;28;20332;-64
2021/10/10 09:07:15;;;;;;;787.08;737.38;;;23.10;75.10;;;22.63;100.00;100689.81;5015300;28;20237;-67
2021/10/10 09:09:43;;;;;;;798.83;748.35;;;23.20;74.80;;;22.75;100.00;100691.56;5014306;28;20235;-65
2021/10/10 09:12:14;;;;;;;788.20;737.88;;;23.30;74.10;;;22.78;100.00;100691.59;5014732;28;20211;-64
2021/10/10 09:14:48;;;;;;;1063.82;999.90;;;23.30;73.70;;;22.80;100.00;100694.75;5013901;28;20428;-67
2021/10/10 09:17:19;;;;;;;853.50;801.55;;;23.50;73.80;;;23.00;100.00;100694.63;5015263;28;20673;-66
2021/10/10 09:19:54;;;;;;;833.05;780.92;;;23.60;73.30;;;23.12;100.00;100691.59;5014292;28;20246;-64
2021/10/10 09:22:24;;;;;;;809.60;758.75;;;23.70;73.50;;;23.24;100.00;100696.84;5014887;28;20214;-65
2021/10/10 09:24:55;;;;;;;815.03;764.10;;;23.80;73.00;;;23.23;100.00;100703.53;5014781;28;20219;-66
2021/10/10 09:27:26;;;;;;;825.28;774.35;;;23.80;72.80;;;23.32;100.00;100698.50;5015112;28;20214;-67
2021/10/10 09:29:57;;;;;;;1071.05;999.90;;;23.90;72.90;;;23.40;100.00;100702.97;5012889;28;20460;-67
2021/10/10 09:32:28;;;;;;;880.85;828.00;;;24.00;72.10;;;23.54;100.00;100697.59;5014792;28;20225;-64
2021/10/10 09:34:56;;;;;;;1087.95;999.90;;;24.10;71.50;;;23.50;100.00;100707.78;5013290;28;20965;-65
2021/10/10 09:37:37;;;;;;;890.90;837.88;;;24.10;71.10;;;23.64;100.00;100704.38;5014885;28;20261;-66
2021/10/10 09:40:10;;;;;;;857.58;805.67;;;24.30;71.60;;;23.69;100.00;100710.34;5014058;28;20254;-63
2021/10/10 09:42:41;;;;;;;848.97;797.38;;;24.30;71.10;;;23.76;100.00;100709.63;5014608;28;20211;-67
2021/10/10 09:45:22;;;;;;;848.63;796.53;;;24.30;71.30;;;23.80;100.00;100708.47;5014428;28;20216;-66
2021/10/10 09:47:55;;;;;;;829.47;778.10;;;24.40;70.80;;;23.89;100.00;100706.16;5014127;28;20210;-65